Time;durP1;ratioP1;P1;durP2;ratioP2;P2;SDS_P1;SDS_P2;PMS_P1;PMS_P2;Temp;Humidity;BMP_temperature;BMP_pressure;BME280_temperature;BME280_humidity;BME280_pressure;Samples;Min_cycle;Max_cycle;Signal;HPM_P1;HPM_P2
2022/07/27 00:00:08;;;;;;;950.78;864.78;;;21.70;99.90;;;;;;5041053;28;20208;-82
2022/07/27 00:02:35;;;;;;;950.03;864.05;;;21.60;99.90;;;;;;5051525;28;20220;-83
2022/07/27 00:05:02;;;;;;;946.53;860.67;;;21.60;99.90;;;;;;5055793;28;20728;-83
2022/07/27 00:07:28;;;;;;;943.13;857.08;;;21.60;99.90;;;;;;5056329;28;20194;-84
2022/07/27 00:09:55;;;;;;;948.97;862.88;;;21.60;99.90;;;;;;5056829;28;20507;-84
2022/07/27 00:12:22;;;;;;;951.28;865.03;;;21.50;99.90;;;;;;5064387;28;20200;-83
2022/07/27 00:14:49;;;;;;;933.83;848.42;;;21.60;99.90;;;;;;5045816;28;20210;-83
2022/07/27 00:17:22;;;;;;;932.05;846.60;;;21.50;99.90;;;;;;5054286;28;20657;-84
2022/07/27 00:19:48;;;;;;;933.30;847.80;;;21.50;99.90;;;;;;5070705;28;20275;-83
2022/07/27 00:22:15;;;;;;;943.25;857.30;;;21.50;99.90;;;;;;5055948;28;20601;-82
2022/07/27 00:24:42;;;;;;;938.55;852.75;;;21.50;99.90;;;;;;5051369;28;20280;-83
2022/07/27 00:27:09;;;;;;;946.63;860.58;;;21.50;99.90;;;;;;5048117;28;20202;-81
2022/07/27 00:29:37;;;;;;;933.25;847.88;;;21.50;99.90;;;;;;5052094;28;20630;-84
2022/07/27 00:32:05;;;;;;;947.38;861.28;;;21.40;99.90;;;;;;5051767;28;20208;-84
2022/07/27 00:34:33;;;;;;;928.20;842.83;;;21.50;99.90;;;;;;5032784;28;20244;-84
2022/07/27 00:37:00;;;;;;;937.38;851.40;;;21.40;99.90;;;;;;5046631;28;20195;-84
2022/07/27 00:39:27;;;;;;;929.38;844.50;;;21.40;99.90;;;;;;5052236;28;20214;-84
2022/07/27 00:41:53;;;;;;;923.00;837.65;;;21.40;99.90;;;;;;5051826;28;20219;-84
2022/07/27 00:44:25;;;;;;;945.08;858.63;;;21.40;99.90;;;;;;5056140;28;20398;-84
2022/07/27 00:46:52;;;;;;;931.75;846.15;;;21.40;99.90;;;;;;5055203;28;20214;-83
2022/07/27 00:49:18;;;;;;;939.28;855.28;;;21.30;99.90;;;;;;5050793;28;20225;-83
2022/07/27 00:51:47;;;;;;;931.78;846.35;;;21.30;99.90;;;;;;5068893;28;20205;-81
2022/07/27 00:54:14;;;;;;;933.35;847.75;;;21.30;99.90;;;;;;5053281;28;20234;-84
2022/07/27 00:56:42;;;;;;;943.47;857.58;;;21.30;99.90;;;;;;5055598;28;20205;-84
2022/07/27 00:59:11;;;;;;;938.75;853.00;;;21.30;99.90;;;;;;5049088;28;20203;-83
2022/07/27 01:01:38;;;;;;;939.67;853.78;;;21.30;99.90;;;;;;5047989;28;20673;-83
2022/07/27 01:04:05;;;;;;;922.83;837.70;;;21.30;99.90;;;;;;5044428;28;20210;-84
2022/07/27 01:06:34;;;;;;;941.10;855.40;;;21.30;99.90;;;;;;5051720;28;20203;-84
2022/07/27 01:11:46;;;;;;;932.97;847.58;;;21.20;99.90;;;;;;5052023;28;20298;-85
2022/07/27 01:14:14;;;;;;;922.72;837.55;;;21.20;99.90;;;;;;5053698;28;20198;-85
2022/07/27 01:16:41;;;;;;;930.42;844.85;;;21.20;99.90;;;;;;5050803;28;20206;-85
2022/07/27 01:19:10;;;;;;;925.55;840.15;;;21.20;99.90;;;;;;5043263;28;20746;-84
2022/07/27 01:21:39;;;;;;;938.58;853.08;;;21.20;99.90;;;;;;5049767;28;20243;-84
2022/07/27 01:24:06;;;;;;;930.25;844.85;;;21.20;99.90;;;;;;5036887;28;20921;-84
2022/07/27 01:26:34;;;;;;;931.00;845.40;;;21.20;99.90;;;;;;5038796;28;20250;-84
2022/07/27 01:29:01;;;;;;;927.33;841.92;;;21.20;99.90;;;;;;5053875;28;20203;-84
2022/07/27 01:31:28;;;;;;;916.15;830.80;;;21.10;99.90;;;;;;5056852;28;20628;-84
2022/07/27 01:33:55;;;;;;;926.15;840.67;;;21.10;99.90;;;;;;5055999;28;20278;-84
2022/07/27 01:36:22;;;;;;;919.00;833.80;;;21.10;99.90;;;;;;5043282;28;20206;-84
2022/07/27 01:38:50;;;;;;;918.85;833.63;;;21.10;99.90;;;;;;5062052;28;20202;-83
2022/07/27 01:41:17;;;;;;;926.08;840.38;;;21.10;99.90;;;;;;5059061;28;20209;-81
2022/07/27 01:43:45;;;;;;;910.17;826.13;;;21.10;99.90;;;;;;5055684;28;20215;-82
2022/07/27 01:46:11;;;;;;;922.72;839.35;;;21.00;99.90;;;;;;5053560;28;20292;-84
2022/07/27 01:48:38;;;;;;;919.60;836.50;;;21.00;99.90;;;;;;5048519;28;20202;-84
2022/07/27 01:51:05;;;;;;;932.00;848.40;;;21.00;99.90;;;;;;5050764;28;20194;-82
2022/07/27 01:53:32;;;;;;;906.00;822.88;;;21.00;99.90;;;;;;5030580;28;20234;-83
2022/07/27 01:56:00;;;;;;;920.25;836.15;;;20.90;99.90;;;;;;5037976;28;20209;-84
2022/07/27 01:58:26;;;;;;;917.65;833.22;;;20.90;99.90;;;;;;5062410;28;20205;-84
2022/07/27 02:00:53;;;;;;;918.00;833.80;;;21.00;99.90;;;;;;5049051;28;20669;-83
2022/07/27 02:03:20;;;;;;;919.85;836.08;;;20.90;99.90;;;;;;5053809;28;20231;-84
2022/07/27 02:05:47;;;;;;;906.40;823.00;;;20.90;99.90;;;;;;5066264;28;20683;-84
2022/07/27 02:08:14;;;;;;;912.92;829.30;;;20.90;99.90;;;;;;5054820;28;20202;-84
2022/07/27 02:13:22;;;;;;;920.72;836.90;;;20.90;99.90;;;;;;5047511;28;20229;-83
2022/07/27 02:15:49;;;;;;;929.67;845.70;;;20.90;99.90;;;;;;5049401;28;20653;-84
2022/07/27 02:18:16;;;;;;;908.33;823.83;;;20.80;99.90;;;;;;5056681;28;20208;-83
2022/07/27 02:20:42;;;;;;;902.97;818.47;;;20.80;99.90;;;;;;5071658;28;20209;-84
2022/07/27 02:23:09;;;;;;;908.13;823.00;;;20.80;99.90;;;;;;5037861;28;20590;-82
2022/07/27 02:25:36;;;;;;;907.00;822.80;;;20.80;99.90;;;;;;5034815;28;20202;-83
2022/07/27 02:28:03;;;;;;;914.28;830.00;;;20.80;99.90;;;;;;5044858;28;20214;-84
2022/07/27 02:30:32;;;;;;;900.10;816.42;;;20.80;99.90;;;;;;5040432;28;20194;-81
2022/07/27 02:32:59;;;;;;;913.33;828.35;;;20.80;99.90;;;;;;5038882;28;20646;-81
2022/07/27 02:35:25;;;;;;;916.22;831.38;;;20.70;99.90;;;;;;5041106;28;20212;-79
2022/07/27 02:37:52;;;;;;;912.38;827.47;;;20.70;99.90;;;;;;5052527;28;20206;-79
2022/07/27 02:40:19;;;;;;;909.65;824.85;;;20.70;99.90;;;;;;5038429;28;20199;-80
2022/07/27 02:42:47;;;;;;;915.53;830.83;;;20.70;99.90;;;;;;5049350;28;20222;-79
2022/07/27 02:45:15;;;;;;;899.55;815.17;;;20.70;99.90;;;;;;5054723;28;20201;-80
2022/07/27 02:47:43;;;;;;;908.97;824.08;;;20.60;99.90;;;;;;5046673;28;20203;-80
2022/07/27 02:50:10;;;;;;;900.10;815.50;;;20.60;99.90;;;;;;5057911;28;20569;-79
2022/07/27 02:52:38;;;;;;;898.00;813.25;;;20.60;99.90;;;;;;5063740;28;20199;-81
2022/07/27 02:55:06;;;;;;;894.78;810.08;;;20.60;99.90;;;;;;5043683;28;20280;-81
2022/07/27 02:57:34;;;;;;;893.78;809.13;;;20.60;99.90;;;;;;5044425;28;20207;-80
2022/07/27 03:03:25;;;;;;;893.97;809.20;;;20.60;99.90;;;;;;5045607;28;20249;-80
2022/07/27 03:05:52;;;;;;;899.67;814.83;;;20.60;99.90;;;;;;5039467;28;20285;-81
2022/07/27 03:08:18;;;;;;;894.72;810.20;;;20.50;99.90;;;;;;5041365;28;20204;-81
2022/07/27 03:10:45;;;;;;;897.03;812.35;;;20.50;99.90;;;;;;5065484;28;20201;-81
2022/07/27 03:13:12;;;;;;;901.10;816.17;;;20.50;99.90;;;;;;5035519;28;20212;-81
2022/07/27 03:15:39;;;;;;;896.45;811.80;;;20.50;99.90;;;;;;5040852;28;20199;-81
2022/07/27 03:18:06;;;;;;;898.95;813.97;;;20.50;99.90;;;;;;5050577;28;20202;-81
2022/07/27 03:20:34;;;;;;;892.25;807.67;;;20.50;99.90;;;;;;5054967;28;20292;-81
2022/07/27 03:23:01;;;;;;;892.70;808.00;;;20.50;99.90;;;;;;5037923;28;20236;-81
2022/07/27 03:25:28;;;;;;;902.45;817.13;;;20.50;99.90;;;;;;5053543;28;20199;-81
2022/07/27 03:27:55;;;;;;;898.67;813.97;;;20.50;99.90;;;;;;5035579;28;20241;-82
2022/07/27 03:30:22;;;;;;;901.17;816.50;;;20.40;99.90;;;;;;5038169;28;20227;-81
2022/07/27 03:32:49;;;;;;;886.65;802.22;;;20.40;99.90;;;;;;5053001;28;20667;-82
2022/07/27 03:35:16;;;;;;;886.60;802.05;;;20.40;99.90;;;;;;5051491;28;20211;-82
2022/07/27 03:37:44;;;;;;;897.83;813.13;;;20.40;99.90;;;;;;5044946;28;20302;-82
2022/07/27 03:40:11;;;;;;;885.15;800.38;;;20.40;99.90;;;;;;5048651;28;20209;-82
2022/07/27 03:42:38;;;;;;;886.90;802.42;;;20.40;99.90;;;;;;5037154;28;20226;-82
2022/07/27 03:45:07;;;;;;;888.15;803.65;;;20.40;99.90;;;;;;5035322;28;20202;-83
2022/07/27 03:47:34;;;;;;;877.38;793.15;;;20.40;99.90;;;;;;5043921;28;20216;-83
2022/07/27 03:50:01;;;;;;;889.83;805.58;;;20.30;99.90;;;;;;5035220;28;20210;-82
2022/07/27 03:52:27;;;;;;;876.85;793.08;;;20.30;99.90;;;;;;5035293;28;20193;-81
2022/07/27 03:54:56;;;;;;;884.03;799.78;;;20.30;99.90;;;;;;5056616;28;20198;-81
2022/07/27 03:57:23;;;;;;;878.03;794.38;;;20.30;99.90;;;;;;5060767;28;20216;-82
2022/07/27 03:59:50;;;;;;;887.75;803.65;;;20.30;99.90;;;;;;5047848;28;20653;-82
2022/07/27 04:02:17;;;;;;;873.03;789.35;;;20.30;99.90;;;;;;5050765;28;20221;-83
2022/07/27 04:04:44;;;;;;;855.40;772.10;;;20.20;99.90;;;;;;5043101;28;20218;-82
2022/07/27 04:07:11;;;;;;;869.20;785.75;;;20.20;99.90;;;;;;5039039;28;20233;-82
2022/07/27 04:09:37;;;;;;;862.17;779.22;;;20.20;99.90;;;;;;5059984;28;20205;-81
2022/07/27 04:12:06;;;;;;;885.53;801.92;;;20.20;99.90;;;;;;5046402;28;20198;-82
2022/07/27 04:14:33;;;;;;;861.95;778.97;;;20.20;99.90;;;;;;5034269;28;20209;-82
2022/07/27 04:16:59;;;;;;;884.00;800.10;;;20.10;99.90;;;;;;5058905;28;20198;-82
2022/07/27 04:19:26;;;;;;;878.20;794.45;;;20.20;99.90;;;;;;5044339;28;20216;-81
2022/07/27 04:21:53;;;;;;;833.85;751.40;;;20.10;99.90;;;;;;5070211;28;20218;-82
2022/07/27 04:24:20;;;;;;;876.97;792.78;;;20.10;99.90;;;;;;5045756;28;20208;-82
2022/07/27 04:26:47;;;;;;;882.30;797.97;;;20.10;99.90;;;;;;5056698;28;20226;-81
2022/07/27 04:29:15;;;;;;;880.00;795.65;;;20.10;99.90;;;;;;5048862;28;20297;-80
2022/07/27 04:31:42;;;;;;;873.47;789.40;;;20.10;99.90;;;;;;5044752;28;20201;-81
2022/07/27 04:34:08;;;;;;;875.58;791.45;;;20.10;99.90;;;;;;5063763;28;20698;-82
2022/07/27 04:36:38;;;;;;;868.38;784.40;;;20.10;99.90;;;;;;5074158;28;20636;-83
2022/07/27 04:39:06;;;;;;;872.22;787.90;;;20.10;99.90;;;;;;5066171;28;20202;-81
2022/07/27 04:41:32;;;;;;;877.35;793.20;;;20.10;99.90;;;;;;5034464;28;20626;-81
2022/07/27 04:44:00;;;;;;;867.97;783.95;;;20.10;99.90;;;;;;5039528;28;20222;-82
2022/07/27 04:46:29;;;;;;;882.78;798.47;;;20.10;99.90;;;;;;5049903;28;20197;-81
2022/07/27 04:48:56;;;;;;;878.10;793.90;;;20.10;99.90;;;;;;5056509;28;20266;-82
2022/07/27 04:51:23;;;;;;;855.58;772.10;;;20.10;99.90;;;;;;5033559;28;20209;-82
2022/07/27 04:53:50;;;;;;;877.88;793.70;;;20.10;99.90;;;;;;5033605;28;20198;-82
2022/07/27 04:56:16;;;;;;;864.50;780.72;;;20.10;99.90;;;;;;5046842;28;20206;-82
2022/07/27 04:58:43;;;;;;;874.50;790.28;;;20.10;99.90;;;;;;5051437;28;20205;-81
2022/07/27 05:01:11;;;;;;;860.30;776.42;;;20.00;99.90;;;;;;5040529;28;20726;-81
2022/07/27 05:03:41;;;;;;;869.28;785.33;;;20.00;99.90;;;;;;5043365;28;20702;-82
2022/07/27 05:06:08;;;;;;;872.67;788.38;;;20.00;99.90;;;;;;5042107;28;20201;-82
2022/07/27 05:08:35;;;;;;;865.35;781.45;;;20.00;99.90;;;;;;5057260;28;20209;-81
2022/07/27 05:11:02;;;;;;;878.00;793.60;;;20.00;99.90;;;;;;5054483;28;20215;-82
2022/07/27 05:13:29;;;;;;;863.10;779.33;;;20.00;99.90;;;;;;5063827;28;20677;-82
2022/07/27 05:15:56;;;;;;;869.28;785.10;;;20.00;99.90;;;;;;5036656;28;20203;-81
2022/07/27 05:18:22;;;;;;;880.13;795.85;;;20.00;99.90;;;;;;5043482;28;20205;-81
2022/07/27 05:20:50;;;;;;;878.13;793.92;;;19.90;99.90;;;;;;5045772;28;20212;-82
2022/07/27 05:23:17;;;;;;;867.08;783.00;;;19.90;99.90;;;;;;5046847;28;20220;-82
2022/07/27 05:25:44;;;;;;;869.40;785.17;;;19.90;99.90;;;;;;5052681;28;20205;-81
2022/07/27 05:28:11;;;;;;;867.30;783.10;;;19.90;99.90;;;;;;5043945;28;20202;-81
2022/07/27 05:30:38;;;;;;;863.05;779.17;;;19.90;99.90;;;;;;5045519;28;20241;-82
2022/07/27 05:33:05;;;;;;;861.28;777.47;;;19.90;99.90;;;;;;5041768;28;20210;-79
2022/07/27 05:35:32;;;;;;;869.22;785.40;;;19.90;99.90;;;;;;5048691;28;20209;-81
2022/07/27 05:38:00;;;;;;;868.58;784.47;;;19.90;99.90;;;;;;5072545;28;20197;-82
2022/07/27 05:40:27;;;;;;;860.65;776.97;;;19.90;99.90;;;;;;5054675;28;20206;-80
2022/07/27 05:42:54;;;;;;;878.55;794.47;;;20.00;99.90;;;;;;5054506;28;20234;-81
2022/07/27 05:45:21;;;;;;;881.83;797.55;;;20.20;99.90;;;;;;5044287;28;20206;-81
2022/07/27 05:47:47;;;;;;;876.65;792.45;;;20.50;99.90;;;;;;5041393;28;20661;-81
2022/07/27 05:50:16;;;;;;;897.97;813.00;;;20.70;99.90;;;;;;5033126;28;20619;-81
2022/07/27 05:52:43;;;;;;;898.45;813.72;;;21.00;99.90;;;;;;5032674;28;20645;-81
2022/07/27 05:55:12;;;;;;;921.83;836.35;;;21.20;99.90;;;;;;5045525;28;20308;-78
2022/07/27 05:57:40;;;;;;;907.63;822.65;;;21.50;99.90;;;;;;5047791;28;20676;-79
2022/07/27 06:00:09;;;;;;;918.03;833.10;;;21.70;99.90;;;;;;5047442;28;20210;-79
2022/07/27 06:02:35;;;;;;;947.92;861.88;;;21.90;99.90;;;;;;5051780;28;20243;-79
2022/07/27 06:05:02;;;;;;;951.58;864.78;;;22.00;99.90;;;;;;5038005;28;20202;-79
2022/07/27 06:10:15;;;;;;;955.95;869.47;;;22.30;99.90;;;;;;5041436;28;20329;-79
2022/07/27 06:12:43;;;;;;;974.40;887.20;;;22.50;99.90;;;;;;5052053;28;20203;-79
2022/07/27 06:15:12;;;;;;;979.67;892.13;;;22.60;99.50;;;;;;5053517;28;20203;-80
2022/07/27 06:17:39;;;;;;;986.10;898.72;;;22.70;99.10;;;;;;5056141;28;20191;-79
2022/07/27 06:20:09;;;;;;;995.63;907.90;;;22.80;98.70;;;;;;5059325;28;20672;-79
2022/07/27 06:22:45;;;;;;;992.40;904.72;;;22.90;98.30;;;;;;5033826;28;20202;-79
2022/07/27 06:25:12;;;;;;;1001.40;913.53;;;23.00;98.00;;;;;;5037105;28;20692;-80
2022/07/27 06:27:40;;;;;;;1002.30;914.47;;;23.10;97.70;;;;;;5041275;28;20206;-79
2022/07/27 06:30:08;;;;;;;1002.25;914.30;;;23.20;97.30;;;;;;5050974;28;20202;-80
2022/07/27 06:32:35;;;;;;;1001.97;914.03;;;23.30;97.10;;;;;;5036161;28;20211;-81
2022/07/27 06:35:02;;;;;;;1009.13;920.83;;;23.30;96.90;;;;;;5041845;28;20231;-81
2022/07/27 06:37:30;;;;;;;1032.70;943.90;;;23.40;96.70;;;;;;5033671;28;20196;-81
2022/07/27 06:39:57;;;;;;;1020.92;932.42;;;23.50;96.40;;;;;;5055410;28;20289;-81
2022/07/27 06:42:24;;;;;;;1030.10;941.25;;;23.60;96.20;;;;;;5047363;28;20286;-81
2022/07/27 06:44:52;;;;;;;1029.70;941.03;;;23.70;95.90;;;;;;5047695;28;20218;-83
2022/07/27 06:47:19;;;;;;;1038.05;948.83;;;23.80;95.70;;;;;;5043045;28;20199;-80
2022/07/27 06:50:34;;;;;;;1032.57;943.57;;;23.80;95.40;;;;;;5044994;28;20280;-80
2022/07/27 06:56:36;;;;;;;1040.10;950.60;;;24.00;94.80;;;;;;5033944;28;20450;-81
2022/07/27 06:59:09;;;;;;;1029.60;940.88;;;24.10;94.60;;;;;;5038215;28;20442;-81
2022/07/27 07:01:38;;;;;;;1038.67;949.67;;;24.20;94.20;;;;;;5048575;28;20222;-81
2022/07/27 07:04:28;;;;;;;1035.90;946.93;;;24.30;94.10;;;;;;5060737;28;20583;-81
2022/07/27 07:06:59;;;;;;;1028.60;940.03;;;24.20;94.00;;;;;;5048599;28;20843;-79
2022/07/27 07:09:30;;;;;;;1042.37;953.37;;;24.20;94.00;;;;;;5048675;28;20445;-81
2022/07/27 07:11:57;;;;;;;1029.30;940.83;;;24.20;94.10;;;;;;5050652;28;20462;-78
2022/07/27 07:14:25;;;;;;;1034.13;945.43;;;24.20;94.00;;;;;;5051322;28;20551;-79
2022/07/27 07:16:54;;;;;;;1033.07;944.30;;;24.20;93.80;;;;;;5058265;28;20457;-83
2022/07/27 07:19:21;;;;;;;1040.80;951.93;;;24.30;93.70;;;;;;5040002;28;21767;-83
2022/07/27 07:21:48;;;;;;;1050.17;960.90;;;24.40;93.30;;;;;;5042664;28;20484;-86
2022/07/27 07:24:14;;;;;;;1065.75;975.85;;;24.50;93.00;;;;;;5031668;28;20782;-84
2022/07/27 07:26:41;;;;;;;1061.53;971.87;;;24.60;92.90;;;;;;5046590;28;20286;-84
2022/07/27 07:29:08;;;;;;;1062.83;973.13;;;24.70;92.70;;;;;;5036728;28;21006;-84
2022/07/27 07:31:35;;;;;;;1060.83;971.63;;;24.70;92.40;;;;;;5050754;28;20467;-80
2022/07/27 07:34:05;;;;;;;1050.77;961.67;;;24.70;92.40;;;;;;5047176;28;20453;-85
2022/07/27 07:36:31;;;;;;;1057.93;968.63;;;24.60;92.40;;;;;;5051946;28;20988;-84
2022/07/27 07:38:58;;;;;;;1062.73;973.20;;;24.60;92.50;;;;;;5052443;28;20457;-81
2022/07/27 07:41:27;;;;;;;1030.73;942.17;;;24.50;92.60;;;;;;5038899;28;20485;-83
2022/07/27 07:43:54;;;;;;;1056.77;967.23;;;24.40;92.70;;;;;;5037714;28;20838;-83
2022/07/27 07:46:21;;;;;;;1051.82;962.70;;;24.40;92.70;;;;;;5044470;28;20438;-84
2022/07/27 07:48:48;;;;;;;1048.82;959.42;;;24.30;92.80;;;;;;5032251;28;20194;-83
2022/07/27 07:51:16;;;;;;;1035.90;947.50;;;24.20;93.00;;;;;;5045745;28;20199;-81
2022/07/27 07:53:43;;;;;;;1045.53;956.35;;;24.30;93.10;;;;;;5037233;28;20219;-84
2022/07/27 07:56:09;;;;;;;1038.00;949.35;;;24.30;92.70;;;;;;5044613;28;20199;-81
2022/07/27 07:58:36;;;;;;;1042.07;953.27;;;24.50;92.60;;;;;;5042584;28;20192;-83
2022/07/27 08:01:03;;;;;;;1047.90;958.70;;;24.50;92.50;;;;;;5033122;28;20431;-83
2022/07/27 08:03:30;;;;;;;1064.03;974.63;;;24.60;92.20;;;;;;5044329;28;20860;-81
2022/07/27 08:05:56;;;;;;;1053.07;963.93;;;24.80;92.00;;;;;;5038771;28;20814;-86
2022/07/27 08:08:26;;;;;;;1054.38;965.20;;;24.70;92.00;;;;;;5042789;28;21032;-85
2022/07/27 08:10:53;;;;;;;1043.00;954.53;;;24.60;92.00;;;;;;5048042;28;20199;-84
2022/07/27 08:13:20;;;;;;;1041.50;952.67;;;24.40;92.00;;;;;;5042088;28;20458;-84
2022/07/27 08:15:46;;;;;;;1046.72;957.67;;;24.20;92.40;;;;;;5052245;28;20535;-84
2022/07/27 08:18:13;;;;;;;1038.97;950.13;;;24.00;92.90;;;;;;5041337;28;20659;-85
2022/07/27 08:20:40;;;;;;;1032.97;944.65;;;23.90;93.00;;;;;;5046632;28;20222;-85
2022/07/27 08:23:06;;;;;;;1036.82;948.05;;;23.80;93.00;;;;;;5047188;28;20202;-85
2022/07/27 08:25:34;;;;;;;1045.10;955.75;;;23.70;93.30;;;;;;5039039;28;20558;-84
2022/07/27 08:28:01;;;;;;;1008.58;921.22;;;23.60;93.70;;;;;;5040630;28;20202;-87
2022/07/27 08:30:28;;;;;;;1012.30;924.40;;;23.50;93.80;;;;;;5037374;28;20203;-86
2022/07/27 08:32:58;;;;;;;1009.47;921.72;;;23.40;93.80;;;;;;5051112;28;20294;-84
2022/07/27 08:35:25;;;;;;;1007.03;919.38;;;23.40;94.00;;;;;;5045376;28;20202;-85
2022/07/27 08:37:52;;;;;;;1016.20;927.88;;;23.30;94.10;;;;;;5055158;28;20195;-86
2022/07/27 08:40:19;;;;;;;1016.17;927.97;;;23.30;94.00;;;;;;5053874;28;20195;-81
2022/07/27 08:42:48;;;;;;;1005.58;917.90;;;23.20;93.70;;;;;;5041973;28;20673;-84
2022/07/27 08:45:16;;;;;;;999.58;912.72;;;23.20;94.40;;;;;;5044478;28;20222;-85
2022/07/27 08:47:45;;;;;;;988.53;902.00;;;23.10;94.20;;;;;;5045843;28;20198;-84
2022/07/27 08:50:23;;;;;;;994.20;907.35;;;23.10;94.50;;;;;;5049296;28;20208;-84
2022/07/27 08:52:53;;;;;;;990.67;903.55;;;23.00;94.50;;;;;;5054138;28;20203;-85
2022/07/27 08:55:21;;;;;;;982.42;895.50;;;23.00;94.30;;;;;;5042031;28;20192;-82
2022/07/27 08:57:49;;;;;;;988.05;900.55;;;22.90;94.20;;;;;;5054039;28;20200;-85
2022/07/27 09:00:16;;;;;;;998.20;910.67;;;22.90;94.40;;;;;;5055871;28;20213;-83
2022/07/27 09:02:44;;;;;;;984.95;898.15;;;22.90;94.40;;;;;;5046098;28;20223;-83
2022/07/27 09:05:11;;;;;;;977.63;890.60;;;22.90;94.70;;;;;;5051176;28;20743;-80
2022/07/27 09:07:38;;;;;;;989.78;902.38;;;22.80;94.90;;;;;;5033850;28;20199;-86
2022/07/27 09:10:06;;;;;;;989.30;902.00;;;22.80;94.90;;;;;;5043298;28;20278;-84
2022/07/27 09:12:33;;;;;;;984.20;897.17;;;22.80;95.00;;;;;;5048349;28;20198;-81
2022/07/27 09:15:08;;;;;;;986.90;899.97;;;22.80;95.30;;;;;;5046544;28;20202;-85
2022/07/27 09:17:36;;;;;;;986.80;899.83;;;22.80;95.50;;;;;;5046271;28;20234;-84
2022/07/27 09:20:05;;;;;;;976.78;889.85;;;22.90;94.90;;;;;;5049928;28;20205;-80
2022/07/27 09:22:39;;;;;;;998.00;910.33;;;23.00;95.30;;;;;;5045534;28;20199;-79
2022/07/27 09:25:07;;;;;;;990.30;903.08;;;23.20;95.00;;;;;;5049006;28;20222;-80
2022/07/27 09:27:34;;;;;;;1003.53;915.90;;;23.40;94.40;;;;;;5035194;28;20287;-81
2022/07/27 09:30:02;;;;;;;1023.28;934.80;;;23.50;93.80;;;;;;5041117;28;20630;-80
2022/07/27 09:32:30;;;;;;;1005.38;917.95;;;23.50;93.30;;;;;;5048367;28;20206;-81
2022/07/27 09:34:57;;;;;;;1016.05;928.22;;;23.50;93.50;;;;;;5050694;28;20221;-81
2022/07/27 09:37:25;;;;;;;997.10;909.70;;;23.50;93.80;;;;;;5046007;28;20195;-80
2022/07/27 09:40:12;;;;;;;1020.00;932.00;;;23.40;93.50;;;;;;5036465;28;20677;-81
2022/07/27 09:42:39;;;;;;;1011.00;923.28;;;23.30;93.70;;;;;;5041185;28;20198;-80
2022/07/27 09:45:27;;;;;;;1005.20;917.67;;;23.30;93.60;;;;;;5041372;28;20222;-81
2022/07/27 09:48:10;;;;;;;1006.58;918.80;;;23.20;93.10;;;;;;5045045;28;20394;-82
2022/07/27 09:50:40;;;;;;;990.58;903.28;;;23.10;93.20;;;;;;5048478;28;20655;-77
2022/07/27 09:53:21;;;;;;;1001.38;913.67;;;23.10;93.30;;;;;;5042715;28;20673;-84
2022/07/27 09:55:57;;;;;;;994.08;906.67;;;23.00;93.80;;;;;;5040899;28;20203;-82
2022/07/27 09:58:42;;;;;;;990.92;903.75;;;23.00;93.90;;;;;;5046230;28;20229;-80
2022/07/27 10:01:10;;;;;;;990.40;903.35;;;22.90;94.00;;;;;;5041200;28;20230;-82
2022/07/27 10:03:39;;;;;;;982.13;895.38;;;22.90;94.60;;;;;;5043208;28;20269;-86
2022/07/27 10:06:08;;;;;;;979.67;893.08;;;22.90;94.70;;;;;;5045724;28;20215;-81
2022/07/27 10:08:37;;;;;;;977.17;890.53;;;23.00;94.30;;;;;;5039732;28;20199;-82
2022/07/27 10:11:03;;;;;;;999.75;912.53;;;23.10;94.00;;;;;;5036796;28;20569;-85
2022/07/27 10:13:30;;;;;;;1003.42;916.08;;;23.20;93.40;;;;;;5045723;28;20201;-82
2022/07/27 10:15:58;;;;;;;997.60;910.38;;;23.30;93.50;;;;;;5052731;28;20206;-84
2022/07/27 10:18:36;;;;;;;1012.00;924.20;;;23.40;93.60;;;;;;5046058;28;20210;-86
2022/07/27 10:21:08;;;;;;;1014.03;926.25;;;23.40;93.00;;;;;;5046871;28;20737;-84
2022/07/27 10:23:37;;;;;;;1002.05;914.55;;;23.50;93.20;;;;;;5045340;28;20561;-84
2022/07/27 10:26:17;;;;;;;1012.85;925.38;;;23.50;93.20;;;;;;5044122;28;20223;-83
2022/07/27 10:28:56;;;;;;;1011.67;924.10;;;23.40;93.20;;;;;;5036257;28;20662;-84
2022/07/27 10:31:24;;;;;;;1005.65;918.10;;;23.40;92.70;;;;;;5044674;28;20206;-84
2022/07/27 10:33:54;;;;;;;1010.42;923.03;;;23.40;93.20;;;;;;5034825;28;20759;-83
2022/07/27 10:36:45;;;;;;;1010.97;923.40;;;23.40;93.00;;;;;;5043603;28;20199;-84
2022/07/27 10:39:24;;;;;;;1012.53;924.85;;;23.40;93.20;;;;;;5046043;28;20206;-84
2022/07/27 10:41:51;;;;;;;997.13;910.15;;;23.40;93.20;;;;;;5038771;28;20191;-85
2022/07/27 10:44:28;;;;;;;990.65;903.92;;;23.40;93.20;;;;;;5031058;28;20230;-85
2022/07/27 10:46:57;;;;;;;1013.42;926.20;;;23.40;93.10;;;;;;5037027;28;20192;-85
2022/07/27 10:49:26;;;;;;;986.97;900.33;;;23.40;93.20;;;;;;5038537;28;20561;-84
2022/07/27 10:51:56;;;;;;;994.92;908.40;;;23.40;92.80;;;;;;5034830;28;20218;-85
2022/07/27 10:54:26;;;;;;;985.95;899.95;;;23.40;92.80;;;;;;5036024;28;20195;-85
2022/07/27 10:56:54;;;;;;;984.83;898.70;;;23.40;92.90;;;;;;5037820;28;20688;-84
2022/07/27 10:59:49;;;;;;;994.47;907.35;;;23.30;92.80;;;;;;5038933;28;20217;-82
2022/07/27 11:02:18;;;;;;;987.80;900.95;;;23.30;92.70;;;;;;5036492;28;20919;-85
2022/07/27 11:04:47;;;;;;;988.83;902.10;;;23.30;93.00;;;;;;5040597;28;20651;-85
2022/07/27 11:07:18;;;;;;;997.63;910.65;;;23.20;92.80;;;;;;5043118;28;20543;-85
2022/07/27 11:09:46;;;;;;;989.47;902.80;;;23.20;92.70;;;;;;5046229;28;20204;-86
2022/07/27 11:12:14;;;;;;;1001.90;914.70;;;23.20;92.70;;;;;;5047343;28;20222;-85
2022/07/27 11:14:45;;;;;;;989.35;902.63;;;23.20;92.70;;;;;;5044204;28;20227;-84
2022/07/27 11:17:13;;;;;;;994.80;907.55;;;23.20;92.80;;;;;;5049146;28;20271;-83
2022/07/27 11:19:40;;;;;;;992.88;905.92;;;23.20;93.20;;;;;;5035147;28;20540;-85
2022/07/27 11:22:07;;;;;;;1001.22;914.13;;;23.20;93.00;;;;;;5035399;28;20204;-85
2022/07/27 11:24:36;;;;;;;1001.85;914.45;;;23.30;93.00;;;;;;5044813;28;20223;-84
2022/07/27 11:27:04;;;;;;;990.05;903.00;;;23.30;93.00;;;;;;5045732;28;20207;-84
2022/07/27 11:29:35;;;;;;;1001.22;914.05;;;23.30;92.80;;;;;;5042810;28;20203;-83
2022/07/27 11:32:03;;;;;;;996.47;909.53;;;23.30;92.70;;;;;;5053223;28;20210;-83
2022/07/27 11:34:31;;;;;;;1005.90;917.90;;;23.30;92.60;;;;;;5047004;28;20199;-82
2022/07/27 11:37:00;;;;;;;998.47;911.08;;;23.30;92.50;;;;;;5060525;28;20202;-84
2022/07/27 11:39:28;;;;;;;987.40;901.03;;;23.30;92.50;;;;;;5055750;28;20271;-81
2022/07/27 11:41:58;;;;;;;990.30;903.72;;;23.30;92.90;;;;;;5039274;28;20204;-85
2022/07/27 11:44:25;;;;;;;984.38;897.40;;;23.30;92.40;;;;;;5037130;28;20203;-85
2022/07/27 11:46:53;;;;;;;989.35;902.40;;;23.30;92.80;;;;;;5040423;28;20653;-84
2022/07/27 11:49:27;;;;;;;990.83;903.95;;;23.30;92.70;;;;;;5048376;28;20198;-84
2022/07/27 11:51:56;;;;;;;989.67;902.92;;;23.30;92.70;;;;;;5047009;28;20249;-82
2022/07/27 11:54:24;;;;;;;984.97;898.38;;;23.30;92.90;;;;;;5042508;28;20282;-83
2022/07/27 11:56:54;;;;;;;1008.33;921.05;;;23.40;93.00;;;;;;5052938;28;20569;-84
2022/07/27 11:59:24;;;;;;;990.35;903.45;;;23.40;92.30;;;;;;5051362;28;20646;-82
2022/07/27 12:01:52;;;;;;;993.92;906.88;;;23.40;92.40;;;;;;5054256;28;20318;-85
2022/07/27 12:04:22;;;;;;;983.38;896.65;;;23.40;92.50;;;;;;5054298;28;20210;-82
2022/07/27 12:07:04;;;;;;;992.35;905.25;;;23.40;92.60;;;;;;5050829;28;20187;-85
2022/07/27 12:09:33;;;;;;;991.35;904.58;;;23.40;92.50;;;;;;5035740;28;20188;-86
2022/07/27 12:12:02;;;;;;;1002.33;914.95;;;23.40;92.70;;;;;;5035803;28;20195;-88
2022/07/27 12:14:38;;;;;;;986.05;899.47;;;23.40;92.70;;;;;;5045080;28;20321;-87
2022/07/27 12:17:13;;;;;;;989.65;903.17;;;23.40;92.70;;;;;;5043581;28;20203;-84
2022/07/27 12:19:41;;;;;;;986.10;899.80;;;23.40;92.40;;;;;;5049684;28;20212;-85
2022/07/27 12:22:08;;;;;;;988.17;901.85;;;23.40;92.60;;;;;;5048825;28;20214;-86
2022/07/27 12:24:37;;;;;;;984.17;897.67;;;23.40;93.10;;;;;;5036948;28;20307;-84
2022/07/27 12:27:07;;;;;;;987.28;900.70;;;23.40;92.40;;;;;;5042698;28;20564;-86